Airfield :
LOGIN :

Register | Disclaimer

   EN    FR    IT 

 










Legend :    VFR   Marginal VFR   IFR   Intensive IFR   Very Intensive IFR
Visi :
Ceiling :
>= 8 km
>= 3000ft
5 to 8 km
1000 to 3000 ft
1500m to 5 km
500 to 1000 ft
800 to 1500m
200 to 500 ft
< 800m
< 200 ft
Symbols :   Thunderstorms  Fog  Heavy snow  Heavy precipitations  Wind > 20 kt
SIGMETs :     Misc.  Thunderstorms  Icing  Turbulence  Mountain Waves  Volcanic Ashes






- Airport Elevation : 33 ft
- IATA code : MHZ


EGUN - RAF Mildenhall

CURRENT METAR :
  • 221326Z 30012KT 9999 BKN028 OVC035 11/10 A3009 RMK AO2A RAB11E26 SLP193 $

EXPIRED METARs :
  • 221311Z 30013KT 9999 -RA BKN030 OVC037 12/09 A3009 RMK AO2A RAB11 SLP193 $
  • 221256Z 29011KT 9999 FEW025 OVC034 12/09 A3008 RMK AO2A SLP190 T01170091 $
  • 221156Z 28015KT 9999 BKN036 BKN046 12/09 A3007 RMK AO2A SLP186 T01160086 10117 20065 52016 $
  • 221146Z 28015G22KT 9999 FEW028 BKN038 12/08 A3007 RMK AO2A SLP186 $
  • 221056Z 28018G23KT 9999 BKN027 BKN040 11/08 A3006 RMK AO2A SLP183 T01110078 $
  • 221046Z 27017G21KT 9999 BKN027 BKN040 BKN050 11/08 A3005 RMK AO2A SLP179 $

TAF TAF EGUN
Valid from the 22 at 12:00 until the 23 at 18:00 UTC


221200Z 2212/2318 28010G20KT 9999 BKN020 BKN045 600454 510004 QNH3006INS
TEMPO 2212/2215 29018G28KT -SHRA BKN018 OVC035 610405 510005
BECMG 2214/2215 29012KT 9999 SCT020 BKN050 600503 QNH3011INS
TEMPO 2215/2218 29010G15KT -SHRA BKN018 OVC040 610405
BECMG 2301/2302 23006KT 6000 BR FEW020 BKN050 QNH3024INS
TEMPO 2303/2307 3200 BR SCT050
BECMG 2308/2309 20012KT 9999 NSW BKN050 QNH3022INS
BECMG 2316/2317 20009KT 9999 SCT015 BKN025 QNH3022INS TX13/2215Z TN07/2307Z



MET'MAP, your aeronautical weather chart ! - Copyright ORBIFLY December 2007 - Disclaimer

ORBIFLY MET'MAP TEAM :

Programming & Development : Alexandra Zaïnal
Concept & original design : Baudouin d'Aumeries
Assistance for programming : Marc-Olivier Méhu
Technical & hardware support : Manuel Goepfert

Contact : metmap@orbifly.com




SOURCES & CREDITS :

   NOAA